createdAt,value
2018-12-03T00:00:20.247Z,52.67
2018-12-03T00:02:48.515Z,59.87
2018-12-03T00:05:16.664Z,60.93
2018-12-03T00:07:44.823Z,63.13
2018-12-03T00:10:13.026Z,57.00
2018-12-03T00:12:41.170Z,59.63
2018-12-03T00:15:12.282Z,62.87
2018-12-03T00:17:40.409Z,60.10
2018-12-03T00:20:09.670Z,61.67
2018-12-03T00:22:38.825Z,61.47
2018-12-03T00:25:07.951Z,59.80
2018-12-03T00:27:36.318Z,59.87
2018-12-03T00:30:07.035Z,48.40
2018-12-03T00:32:35.207Z,56.23
2018-12-03T00:35:03.771Z,51.07
2018-12-03T00:37:32.325Z,47.57
2018-12-03T00:40:00.596Z,46.10
2018-12-03T00:42:28.704Z,46.30
2018-12-03T00:44:56.833Z,53.03
2018-12-03T00:47:25.266Z,45.77
2018-12-03T00:49:53.640Z,42.37
2018-12-03T00:52:22.624Z,40.70
2018-12-03T00:54:50.640Z,40.97
2018-12-03T00:57:18.613Z,39.83
2018-12-03T00:59:46.664Z,40.73
2018-12-03T01:02:20.207Z,41.97
2018-12-03T01:04:48.247Z,40.57
2018-12-03T01:07:16.441Z,42.77
2018-12-03T01:09:44.494Z,32.97
2018-12-03T01:12:12.566Z,32.37
2018-12-03T01:14:40.652Z,36.57
2018-12-03T01:17:09.019Z,38.17
2018-12-03T01:19:37.183Z,33.67
2018-12-03T01:22:05.693Z,34.93
2018-12-03T01:24:33.773Z,30.90
2018-12-03T01:27:02.047Z,36.43
2018-12-03T01:29:30.281Z,29.53
2018-12-03T01:31:58.502Z,34.93
2018-12-03T01:34:26.667Z,33.37
2018-12-03T01:36:54.840Z,30.27
2018-12-03T01:39:22.977Z,29.63
2018-12-03T01:41:51.260Z,32.00
2018-12-03T01:44:19.439Z,27.80
2018-12-03T01:46:47.521Z,31.57
2018-12-03T01:49:15.524Z,31.50
2018-12-03T01:51:43.850Z,25.80
2018-12-03T01:54:12.219Z,29.50
2018-12-03T01:56:40.354Z,27.53
2018-12-03T01:59:08.622Z,23.37
2018-12-03T02:01:37.125Z,23.50
2018-12-03T02:04:05.504Z,26.53
2018-12-03T02:06:33.618Z,21.70
2018-12-03T02:09:01.887Z,24.23
2018-12-03T02:11:30.034Z,20.57
2018-12-03T02:13:58.218Z,20.80
2018-12-03T02:16:26.322Z,26.43
2018-12-03T02:18:54.366Z,29.93
2018-12-03T02:21:22.596Z,25.13
2018-12-03T02:23:50.621Z,23.27
2018-12-03T02:26:18.480Z,23.27
2018-12-03T02:28:46.540Z,24.73
2018-12-03T02:31:14.803Z,22.60
2018-12-03T02:33:43.179Z,17.63
2018-12-03T02:36:11.815Z,18.70
2018-12-03T02:38:39.948Z,17.87
2018-12-03T02:41:08.046Z,18.00
2018-12-03T02:43:36.495Z,16.97
2018-12-03T02:46:04.677Z,17.57
2018-12-03T02:48:32.802Z,18.27
2018-12-03T02:51:00.670Z,14.40
2018-12-03T02:53:28.687Z,15.70
2018-12-03T02:55:56.680Z,16.87
2018-12-03T02:58:25.138Z,17.33
2018-12-03T03:00:53.634Z,14.67
2018-12-03T03:03:21.966Z,15.73
2018-12-03T03:05:50.277Z,16.73
2018-12-03T03:08:18.392Z,12.37
2018-12-03T03:10:46.442Z,13.23
2018-12-03T03:13:14.667Z,12.50
2018-12-03T03:15:42.842Z,13.40
2018-12-03T03:18:10.909Z,12.83
2018-12-03T03:20:39.323Z,11.10
2018-12-03T03:23:07.434Z,12.40
2018-12-03T03:25:35.565Z,9.97
2018-12-03T03:28:03.863Z,8.27
2018-12-03T03:30:32.068Z,11.67
2018-12-03T03:33:00.324Z,9.53
2018-12-03T03:35:29.302Z,7.37
2018-12-03T03:37:57.456Z,7.33
2018-12-03T03:40:25.492Z,8.40
2018-12-03T03:42:53.604Z,12.87
2018-12-03T03:45:23.171Z,14.33
2018-12-03T03:47:51.355Z,8.70
2018-12-03T03:50:19.495Z,7.93
2018-12-03T03:52:47.741Z,6.97
2018-12-03T03:55:15.996Z,8.40
2018-12-03T03:57:44.037Z,6.87
2018-12-03T04:00:13.192Z,6.83
2018-12-03T04:02:41.279Z,7.97
2018-12-03T04:05:12.078Z,8.07
2018-12-03T04:07:40.593Z,10.53
2018-12-03T04:10:10.795Z,8.67
2018-12-03T04:12:39.443Z,7.90
2018-12-03T04:15:09.410Z,8.57
2018-12-03T04:17:37.632Z,8.30
2018-12-03T04:20:10.814Z,8.43
2018-12-03T04:22:39.114Z,6.93
2018-12-03T04:25:08.622Z,7.13
2018-12-03T04:27:36.898Z,6.60
2018-12-03T04:30:08.731Z,7.23
2018-12-03T04:32:36.733Z,7.73
2018-12-03T04:35:05.547Z,9.40
2018-12-03T04:37:33.857Z,8.50
2018-12-03T04:40:02.023Z,6.80
2018-12-03T04:42:30.168Z,7.60
2018-12-03T04:44:58.218Z,10.03
2018-12-03T04:47:26.283Z,7.57
2018-12-03T04:49:54.598Z,12.77
2018-12-03T04:52:22.927Z,8.37
2018-12-03T04:54:51.105Z,8.40
2018-12-03T04:57:19.236Z,8.77
2018-12-03T04:59:47.333Z,7.33
2018-12-03T05:02:15.486Z,9.07
2018-12-03T05:04:43.587Z,7.90
2018-12-03T05:07:11.783Z,8.27
2018-12-03T05:09:39.832Z,8.23
2018-12-03T05:12:07.923Z,9.67
2018-12-03T05:14:36.156Z,10.17
2018-12-03T05:17:04.423Z,9.00
2018-12-03T05:19:32.546Z,8.30
2018-12-03T05:22:00.669Z,9.10
2018-12-03T05:24:28.758Z,9.47
2018-12-03T05:26:56.917Z,10.70
2018-12-03T05:29:25.198Z,9.13
2018-12-03T05:31:53.628Z,8.43
2018-12-03T05:34:21.880Z,11.53
2018-12-03T05:36:50.041Z,12.77
2018-12-03T05:39:18.118Z,9.90
2018-12-03T05:41:46.233Z,13.20
2018-12-03T05:44:14.432Z,11.53
2018-12-03T05:46:42.771Z,11.47
2018-12-03T05:49:11.228Z,12.83
2018-12-03T05:51:39.371Z,11.17
2018-12-03T05:54:07.543Z,14.07
2018-12-03T05:56:35.825Z,12.07
2018-12-03T05:59:04.524Z,12.03
2018-12-03T06:01:33.481Z,16.23
2018-12-03T06:04:02.663Z,13.97
2018-12-03T06:06:31.386Z,12.47
2018-12-03T06:08:59.749Z,13.30
2018-12-03T06:11:28.148Z,16.30
2018-12-03T06:13:58.347Z,13.13
2018-12-03T06:16:26.516Z,15.90
2018-12-03T06:18:55.339Z,14.47
2018-12-03T06:21:23.851Z,13.33
2018-12-03T06:23:54.290Z,14.20
2018-12-03T06:26:23.280Z,13.37
2018-12-03T06:28:51.921Z,10.80
2018-12-03T06:31:22.292Z,11.63
2018-12-03T06:33:51.359Z,12.63
2018-12-03T06:36:19.554Z,14.63
2018-12-03T06:38:48.014Z,13.03
2018-12-03T06:41:16.535Z,12.00
2018-12-03T06:43:44.884Z,14.27
2018-12-03T06:46:13.743Z,16.33
2018-12-03T06:48:42.541Z,14.07
2018-12-03T06:51:10.961Z,12.37
2018-12-03T06:53:39.254Z,12.20
2018-12-03T06:56:07.521Z,14.37
2018-12-03T06:58:35.809Z,16.50
2018-12-03T07:01:04.240Z,15.60
2018-12-03T07:03:32.523Z,12.73
2018-12-03T07:06:01.072Z,13.67
2018-12-03T07:08:29.385Z,14.03
2018-12-03T07:10:57.821Z,15.80
2018-12-03T07:13:26.956Z,14.67
2018-12-03T07:15:57.148Z,15.80
2018-12-03T07:18:25.844Z,13.83
2018-12-03T07:20:54.067Z,14.90
2018-12-03T07:23:22.510Z,14.47
2018-12-03T07:25:51.723Z,14.60
2018-12-03T07:28:20.134Z,14.57
2018-12-03T07:30:51.081Z,14.67
2018-12-03T07:33:19.128Z,13.30
2018-12-03T07:35:47.371Z,15.87
2018-12-03T07:38:15.822Z,11.77
2018-12-03T07:40:44.033Z,13.07
2018-12-03T07:43:12.592Z,13.00
2018-12-03T07:45:40.762Z,11.10
2018-12-03T07:48:09.632Z,13.80
2018-12-03T07:50:38.042Z,11.60
2018-12-03T07:53:06.638Z,14.47
2018-12-03T07:55:34.752Z,11.27
2018-12-03T07:58:08.030Z,10.27
2018-12-03T08:00:47.512Z,13.13
2018-12-03T08:03:15.849Z,12.77
2018-12-03T08:05:44.394Z,13.90
2018-12-03T08:08:12.920Z,13.53
2018-12-03T08:10:42.882Z,14.50
2018-12-03T08:13:12.520Z,12.37
2018-12-03T08:15:40.622Z,12.80
2018-12-03T08:18:11.828Z,9.97
2018-12-03T08:20:49.222Z,13.37
2018-12-03T08:23:24.244Z,13.27
2018-12-03T08:25:52.480Z,10.93
2018-12-03T08:28:20.458Z,10.63
2018-12-03T08:30:48.750Z,10.63
2018-12-03T08:33:16.846Z,11.67
2018-12-03T08:35:45.079Z,11.00
2018-12-03T08:38:13.327Z,11.03
2018-12-03T08:40:41.506Z,12.17
2018-12-03T08:43:09.823Z,11.07
2018-12-03T08:45:37.975Z,10.60
2018-12-03T08:48:06.800Z,12.10
2018-12-03T08:50:35.071Z,10.23
2018-12-03T08:53:03.423Z,11.13
2018-12-03T08:55:31.722Z,11.13
2018-12-03T08:57:59.769Z,12.03
2018-12-03T09:00:29.160Z,12.63
2018-12-03T09:03:06.620Z,14.87
2018-12-03T09:05:38.113Z,11.97
2018-12-03T09:08:08.037Z,12.00
2018-12-03T09:10:36.840Z,13.10
2018-12-03T09:13:08.875Z,12.20
2018-12-03T09:15:37.194Z,10.33
2018-12-03T09:18:05.625Z,9.13
2018-12-03T09:20:33.864Z,9.90
2018-12-03T09:23:02.419Z,12.73
2018-12-03T09:25:30.577Z,10.40
2018-12-03T09:27:58.876Z,10.33
2018-12-03T09:30:27.892Z,10.03
2018-12-03T09:32:55.458Z,10.97
2018-12-03T09:35:23.792Z,9.03
2018-12-03T09:37:52.285Z,10.03
2018-12-03T09:40:24.296Z,14.00
2018-12-03T09:42:52.807Z,11.10
2018-12-03T09:47:55.019Z,9.13
2018-12-03T09:50:25.972Z,7.57
2018-12-03T09:52:54.462Z,7.37
2018-12-03T09:55:24.374Z,7.77
2018-12-03T09:57:59.175Z,8.87
2018-12-03T10:00:27.587Z,9.37
2018-12-03T10:02:57.163Z,9.60
2018-12-03T10:05:27.506Z,10.60
2018-12-03T10:07:55.806Z,10.83
2018-12-03T10:10:24.389Z,10.90
2018-12-03T10:12:52.494Z,7.67
2018-12-03T10:15:26.487Z,10.83
2018-12-03T10:17:55.858Z,9.00
2018-12-03T10:20:24.539Z,9.73
2018-12-03T10:22:52.953Z,11.10
2018-12-03T10:25:21.368Z,9.77
2018-12-03T10:27:50.005Z,11.90
2018-12-03T10:30:25.912Z,10.77
2018-12-03T10:32:54.348Z,11.40
2018-12-03T10:35:24.233Z,12.27
2018-12-03T10:37:52.821Z,10.53
2018-12-03T10:40:22.105Z,10.73
2018-12-03T10:42:50.709Z,9.93
2018-12-03T10:45:26.277Z,9.73
2018-12-03T10:47:57.309Z,10.20
2018-12-03T10:50:25.919Z,10.67
2018-12-03T10:52:54.435Z,12.87
2018-12-03T10:55:23.742Z,12.17
2018-12-03T10:57:51.953Z,10.10
2018-12-03T11:00:25.784Z,11.67
2018-12-03T11:03:00.807Z,11.70
2018-12-03T11:05:35.903Z,11.27
2018-12-03T11:08:04.163Z,13.53
2018-12-03T11:10:34.146Z,10.40
2018-12-03T11:13:02.627Z,13.53
2018-12-03T11:15:31.212Z,11.90
2018-12-03T11:18:01.134Z,11.97
2018-12-03T11:20:29.295Z,11.80
2018-12-03T11:22:58.114Z,11.97
2018-12-03T11:25:28.765Z,10.43
2018-12-03T11:27:58.263Z,12.13
2018-12-03T11:30:26.477Z,13.27
2018-12-03T11:32:54.655Z,11.37
2018-12-03T11:35:25.571Z,11.17
2018-12-03T11:37:58.308Z,12.37
2018-12-03T11:40:37.426Z,15.20
2018-12-03T11:43:06.314Z,14.63
2018-12-03T11:45:34.772Z,10.73
2018-12-03T11:48:03.370Z,13.53
2018-12-03T11:50:32.333Z,12.03
2018-12-03T11:53:01.979Z,12.57
2018-12-03T11:55:30.781Z,13.60
2018-12-03T11:58:00.042Z,12.97
2018-12-03T12:00:28.324Z,14.20
2018-12-03T12:02:56.758Z,16.17
2018-12-03T12:05:26.264Z,15.13
2018-12-03T12:07:55.244Z,12.30
2018-12-03T12:10:24.724Z,16.50
2018-12-03T12:12:52.816Z,13.27
2018-12-03T12:15:20.824Z,12.90
2018-12-03T12:17:49.189Z,12.73
2018-12-03T12:20:17.436Z,12.17
2018-12-03T12:22:45.670Z,11.93
2018-12-03T12:25:14.061Z,13.30
2018-12-03T12:27:45.831Z,12.00
2018-12-03T12:30:15.089Z,13.07
2018-12-03T12:32:43.315Z,10.03
2018-12-03T12:35:11.704Z,13.47
2018-12-03T12:37:39.667Z,14.33
2018-12-03T12:40:10.490Z,10.97
2018-12-03T12:42:38.943Z,10.30
2018-12-03T12:45:26.005Z,14.70
2018-12-03T12:47:54.329Z,14.07
2018-12-03T12:50:22.402Z,10.53
2018-12-03T12:52:50.558Z,10.23
2018-12-03T12:55:18.793Z,11.10
2018-12-03T12:57:46.921Z,11.90
2018-12-03T13:00:16.439Z,11.23
2018-12-03T13:02:46.874Z,12.50
2018-12-03T13:05:14.984Z,9.40
2018-12-03T13:07:43.420Z,12.93
2018-12-03T13:10:13.651Z,11.30
2018-12-03T13:12:42.185Z,8.93
2018-12-03T13:15:12.843Z,11.60
2018-12-03T13:17:43.761Z,11.20
2018-12-03T13:20:15.149Z,9.60
2018-12-03T13:22:43.393Z,10.57
2018-12-03T13:25:16.389Z,8.03
2018-12-03T13:27:45.379Z,11.10
2018-12-03T13:30:15.065Z,9.63
2018-12-03T13:32:43.214Z,8.23
2018-12-03T13:35:12.562Z,8.27
2018-12-03T13:37:40.854Z,11.03
2018-12-03T13:40:13.645Z,8.53
2018-12-03T13:42:41.808Z,12.37
2018-12-03T13:45:16.753Z,7.93
2018-12-03T13:47:44.979Z,8.63
2018-12-03T13:50:14.495Z,8.43
2018-12-03T13:52:42.974Z,7.80
2018-12-03T13:55:13.122Z,9.13
2018-12-03T13:57:41.429Z,8.37
2018-12-03T14:00:14.877Z,12.73
2018-12-03T14:02:44.775Z,8.27
2018-12-03T14:05:14.398Z,8.33
2018-12-03T14:07:51.823Z,10.70
2018-12-03T14:10:43.367Z,9.30
2018-12-03T14:13:45.734Z,11.43
2018-12-03T14:16:19.437Z,10.57
2018-12-03T14:18:51.422Z,8.50
2018-12-03T14:21:24.472Z,10.50
2018-12-03T14:23:54.782Z,10.90
2018-12-03T14:26:22.939Z,10.03
2018-12-03T14:28:51.869Z,11.77
2018-12-03T14:31:20.230Z,10.83
2018-12-03T14:33:48.364Z,10.83
2018-12-03T14:36:16.551Z,9.87
2018-12-03T14:38:44.559Z,13.20
2018-12-03T14:41:12.610Z,14.93
2018-12-03T14:43:40.699Z,14.60
2018-12-03T14:46:08.882Z,10.37
2018-12-03T14:48:37.262Z,14.13
2018-12-03T14:51:05.362Z,10.23
2018-12-03T14:53:33.513Z,11.93
2018-12-03T14:56:01.614Z,9.63
2018-12-03T14:58:29.723Z,10.80
2018-12-03T15:00:57.726Z,13.27
2018-12-03T15:03:25.820Z,14.13
2018-12-03T15:05:53.990Z,9.97
2018-12-03T15:08:22.155Z,8.97
2018-12-03T15:10:50.162Z,13.13
2018-12-03T15:13:18.214Z,11.17
2018-12-03T15:15:46.699Z,12.67
2018-12-03T15:18:14.900Z,10.77
2018-12-03T15:20:43.574Z,9.07
2018-12-03T15:23:11.654Z,12.23
2018-12-03T15:25:39.947Z,10.93
2018-12-03T15:28:08.165Z,9.30
2018-12-03T15:30:36.177Z,9.40
2018-12-03T15:33:04.238Z,8.47
2018-12-03T15:35:32.259Z,9.13
2018-12-03T15:38:00.383Z,8.03
2018-12-03T15:40:29.534Z,7.77
2018-12-03T15:42:57.632Z,8.83
2018-12-03T15:45:26.083Z,7.10
2018-12-03T15:47:54.440Z,10.50
2018-12-03T15:50:22.530Z,7.83
2018-12-03T15:52:50.612Z,6.90
2018-12-03T15:55:18.790Z,8.47
2018-12-03T15:57:47.033Z,6.83
2018-12-03T16:00:15.114Z,7.43
2018-12-03T16:02:43.180Z,8.07
2018-12-03T16:05:14.343Z,7.73
2018-12-03T16:07:42.530Z,7.33
2018-12-03T16:10:12.548Z,9.87
2018-12-03T16:12:40.994Z,8.33
2018-12-03T16:15:09.313Z,8.60
2018-12-03T16:17:37.565Z,6.40
2018-12-03T16:20:07.561Z,6.93
2018-12-03T16:22:35.594Z,9.03
2018-12-03T16:25:04.369Z,6.20
2018-12-03T16:27:32.617Z,6.50
2018-12-03T16:30:00.709Z,5.87
2018-12-03T16:32:29.518Z,6.37
2018-12-03T16:34:57.766Z,5.80
2018-12-03T16:37:25.964Z,5.80
2018-12-03T16:39:54.282Z,8.33
2018-12-03T16:42:22.894Z,9.83
2018-12-03T16:44:51.280Z,5.50
2018-12-03T16:47:19.280Z,6.47
2018-12-03T16:49:47.321Z,6.37
2018-12-03T16:52:15.766Z,5.97
2018-12-03T16:54:43.950Z,5.90
2018-12-03T16:57:12.023Z,7.23
2018-12-03T16:59:40.324Z,5.93
2018-12-03T17:02:08.441Z,6.03
2018-12-03T17:04:36.581Z,5.50
2018-12-03T17:07:04.945Z,6.77
2018-12-03T17:09:33.053Z,10.00
2018-12-03T17:12:01.334Z,6.97
2018-12-03T17:14:29.572Z,9.63
2018-12-03T17:16:57.795Z,10.03
2018-12-03T17:19:26.349Z,7.20
2018-12-03T17:24:11.531Z,18.43
2018-12-03T17:26:40.864Z,7.87
2018-12-03T17:29:09.109Z,7.53
2018-12-03T17:31:37.291Z,8.00
2018-12-03T17:34:05.429Z,6.33
2018-12-03T17:36:33.508Z,8.37
2018-12-03T17:39:01.687Z,9.23
2018-12-03T17:41:29.780Z,8.57
2018-12-03T17:43:58.126Z,8.13
2018-12-03T17:46:26.293Z,11.13
2018-12-03T17:48:54.513Z,9.83
2018-12-03T17:51:22.610Z,11.87
2018-12-03T17:53:50.923Z,7.50
2018-12-03T17:56:19.103Z,9.50
2018-12-03T17:58:47.101Z,7.70
2018-12-03T18:01:15.601Z,6.37
2018-12-03T18:03:43.635Z,5.73
2018-12-03T18:06:16.945Z,7.27
2018-12-03T18:08:39.996Z,5.73
2018-12-03T18:11:08.390Z,5.60
2018-12-03T18:13:36.623Z,4.07
2018-12-03T18:16:05.067Z,4.07
2018-12-03T18:18:33.063Z,4.50
2018-12-03T18:21:01.027Z,4.00
2018-12-03T18:23:29.235Z,4.13
2018-12-03T18:25:57.883Z,3.13
2018-12-03T18:28:26.139Z,4.33
2018-12-03T18:30:54.953Z,3.10
2018-12-03T18:33:23.225Z,3.97
2018-12-03T18:35:51.411Z,3.33
2018-12-03T18:38:20.428Z,2.97
2018-12-03T18:40:48.497Z,2.63
2018-12-03T18:43:16.618Z,3.50
2018-12-03T18:45:44.751Z,3.70
2018-12-03T18:48:14.106Z,2.50
2018-12-03T18:50:44.621Z,3.17
2018-12-03T18:53:23.133Z,2.83
2018-12-03T18:55:51.351Z,3.10
2018-12-03T18:58:25.273Z,3.77
2018-12-03T19:00:53.315Z,4.47
2018-12-03T19:03:21.483Z,26.17
2018-12-03T19:05:49.679Z,3.10
2018-12-03T19:08:17.956Z,3.40
2018-12-03T19:10:46.154Z,4.10
2018-12-03T19:13:14.765Z,3.20
2018-12-03T19:15:43.113Z,2.80
2018-12-03T19:18:13.839Z,2.70
2018-12-03T19:20:42.223Z,4.10
2018-12-03T19:23:10.541Z,3.23
2018-12-03T19:25:38.739Z,3.73
2018-12-03T19:28:07.427Z,4.20
2018-12-03T19:30:35.633Z,5.60
2018-12-03T19:33:04.081Z,4.53
2018-12-03T19:35:32.193Z,5.17
2018-12-03T19:38:00.542Z,5.40
2018-12-03T19:40:28.800Z,6.77
2018-12-03T19:42:59.923Z,5.30
2018-12-03T19:45:28.404Z,6.60
2018-12-03T19:47:56.910Z,7.13
2018-12-03T19:50:27.125Z,6.90
2018-12-03T19:52:55.570Z,6.90
2018-12-03T19:55:23.982Z,7.43
2018-12-03T19:58:01.603Z,7.77
2018-12-03T20:00:31.596Z,7.80
2018-12-03T20:02:59.904Z,8.17
2018-12-03T20:05:30.516Z,8.83
2018-12-03T20:07:58.712Z,11.67
2018-12-03T20:10:27.048Z,9.77
2018-12-03T20:12:55.351Z,9.07
2018-12-03T20:15:23.893Z,8.90
2018-12-03T20:17:52.573Z,9.93
2018-12-03T20:20:25.620Z,9.33
2018-12-03T20:23:01.028Z,13.30
2018-12-03T20:25:41.629Z,9.13
2018-12-03T20:28:16.845Z,8.27
2018-12-03T20:32:19.747Z,7.30
2018-12-03T20:34:46.517Z,6.43
2018-12-03T20:37:18.510Z,6.73
2018-12-03T20:39:49.261Z,6.27
2018-12-03T20:42:19.841Z,5.90
2018-12-03T20:44:46.526Z,5.73
2018-12-03T20:47:13.116Z,5.40
2018-12-03T20:49:39.760Z,4.33
2018-12-03T20:52:06.849Z,5.03
2018-12-03T20:54:33.827Z,4.77
2018-12-03T20:57:01.833Z,4.00
2018-12-03T20:59:28.310Z,6.30
2018-12-03T21:01:58.288Z,4.47
2018-12-03T21:04:28.069Z,4.20
2018-12-03T21:09:26.194Z,4.73
2018-12-03T21:11:52.925Z,3.63
2018-12-03T21:14:20.257Z,6.57
2018-12-03T21:16:46.828Z,5.07
2018-12-03T21:19:13.277Z,4.53
2018-12-03T21:21:40.156Z,6.37
2018-12-03T21:24:06.872Z,6.40
2018-12-03T21:26:33.328Z,5.53
2018-12-03T21:28:59.761Z,4.73
2018-12-03T21:31:26.436Z,6.27
2018-12-03T21:33:52.915Z,4.83
2018-12-03T21:36:19.895Z,6.50
2018-12-03T21:38:46.519Z,5.63
2018-12-03T21:41:12.897Z,5.33
2018-12-03T21:43:39.311Z,5.37
2018-12-03T21:46:05.740Z,6.07
2018-12-03T21:48:32.334Z,7.37
2018-12-03T21:50:58.803Z,6.70
2018-12-03T21:53:25.348Z,6.57
2018-12-03T21:55:52.071Z,8.67
2018-12-03T21:58:18.448Z,4.87
2018-12-03T22:00:45.084Z,6.70
2018-12-03T22:03:11.525Z,7.13
2018-12-03T22:05:38.118Z,4.47
2018-12-03T22:08:04.613Z,5.67
2018-12-03T22:10:31.103Z,5.87
2018-12-03T22:12:58.166Z,4.83
2018-12-03T22:15:24.816Z,6.00
2018-12-03T22:17:51.412Z,7.10
2018-12-03T22:20:17.870Z,5.13
2018-12-03T22:22:44.611Z,6.20
2018-12-03T22:25:11.036Z,7.50
2018-12-03T22:27:37.408Z,4.23
2018-12-03T22:30:05.182Z,5.37
2018-12-03T22:32:31.766Z,5.50
2018-12-03T22:34:58.162Z,5.43
2018-12-03T22:37:24.951Z,6.77
2018-12-03T22:39:51.523Z,5.50
2018-12-03T22:42:18.018Z,3.80
2018-12-03T22:44:44.462Z,5.00
2018-12-03T22:47:10.894Z,5.37
2018-12-03T22:49:37.428Z,4.37
2018-12-03T22:52:03.869Z,6.23
2018-12-03T22:54:30.310Z,4.03
2018-12-03T22:56:56.733Z,5.10
2018-12-03T22:59:23.136Z,5.60
2018-12-03T23:01:49.558Z,6.47
2018-12-03T23:04:15.905Z,4.93
2018-12-03T23:06:42.743Z,5.00
2018-12-03T23:09:09.081Z,5.20
2018-12-03T23:11:35.524Z,5.03
2018-12-03T23:14:01.948Z,4.90
2018-12-03T23:16:28.398Z,4.67
2018-12-03T23:18:54.778Z,4.53
2018-12-03T23:21:21.145Z,5.67
2018-12-03T23:23:47.547Z,4.37
2018-12-03T23:26:13.928Z,4.90
2018-12-03T23:28:40.260Z,6.07
2018-12-03T23:31:06.680Z,7.00
2018-12-03T23:33:33.071Z,4.63
2018-12-03T23:35:59.470Z,6.60
2018-12-03T23:38:25.863Z,4.57
2018-12-03T23:40:52.355Z,5.47
2018-12-03T23:43:18.697Z,5.10
2018-12-03T23:45:45.142Z,6.17
2018-12-03T23:48:11.476Z,6.87
2018-12-03T23:50:37.945Z,5.57
2018-12-03T23:53:04.420Z,5.40
2018-12-03T23:55:30.832Z,8.03
2018-12-03T23:57:57.286Z,5.80
